createdAt,value
2022-09-02T00:01:03.667Z,0.90
2022-09-02T00:03:35.182Z,0.70
2022-09-02T00:06:02.396Z,1.00
2022-09-02T00:08:29.413Z,0.90
2022-09-02T00:10:56.007Z,0.95
2022-09-02T00:13:23.246Z,0.70
2022-09-02T00:15:50.635Z,0.90
2022-09-02T00:18:18.283Z,1.00
2022-09-02T00:20:47.466Z,0.90
2022-09-02T00:23:14.326Z,0.80
2022-09-02T00:25:41.276Z,1.00
2022-09-02T00:28:09.515Z,0.80
2022-09-02T00:30:36.226Z,0.90
2022-09-02T00:33:03.426Z,0.90
2022-09-02T00:35:30.431Z,0.70
2022-09-02T00:37:57.109Z,0.73
2022-09-02T00:40:24.460Z,0.95
2022-09-02T00:42:51.635Z,0.98
2022-09-02T00:45:19.015Z,0.80
2022-09-02T00:47:45.717Z,0.70
2022-09-02T00:50:14.396Z,1.00
2022-09-02T00:52:43.336Z,0.93
2022-09-02T00:55:17.946Z,0.93
2022-09-02T00:57:46.537Z,0.88
2022-09-02T01:00:18.561Z,1.15
2022-09-02T01:02:57.384Z,0.98
2022-09-02T01:05:30.046Z,0.80
2022-09-02T01:07:57.668Z,0.90
2022-09-02T01:10:26.215Z,1.00
2022-09-02T01:12:57.176Z,0.75
2022-09-02T01:15:23.836Z,0.90
2022-09-02T01:17:50.964Z,1.15
2022-09-02T01:20:21.344Z,0.90
2022-09-02T01:22:53.017Z,0.75
2022-09-02T01:25:25.446Z,0.80
2022-09-02T01:27:52.016Z,0.90
2022-09-02T01:30:23.563Z,1.10
2022-09-02T01:32:50.177Z,1.00
2022-09-02T01:35:17.455Z,0.60
2022-09-02T01:37:54.788Z,0.73
2022-09-02T01:40:23.473Z,0.68
2022-09-02T01:42:53.435Z,1.27
2022-09-02T01:45:20.176Z,0.80
2022-09-02T01:47:46.716Z,1.00
2022-09-02T01:50:13.432Z,1.00
2022-09-02T01:52:40.053Z,0.65
2022-09-02T01:55:06.676Z,0.90
2022-09-02T01:57:33.446Z,1.00
2022-09-02T02:00:01.810Z,0.90
2022-09-02T02:02:29.256Z,0.70
2022-09-02T02:04:56.075Z,0.88
2022-09-02T02:07:25.398Z,0.70
2022-09-02T02:09:52.343Z,0.75
2022-09-02T02:12:19.521Z,0.80
2022-09-02T02:14:46.196Z,0.90
2022-09-02T02:17:13.188Z,0.85
2022-09-02T02:19:40.259Z,0.82
2022-09-02T02:22:06.917Z,0.95
2022-09-02T02:24:33.626Z,0.90
2022-09-02T02:27:00.284Z,0.50
2022-09-02T02:29:26.899Z,0.88
2022-09-02T02:31:53.443Z,0.80
2022-09-02T02:34:20.344Z,0.98
2022-09-02T02:36:47.040Z,1.25
2022-09-02T02:39:13.708Z,0.80
2022-09-02T02:41:41.393Z,0.80
2022-09-02T02:44:11.326Z,0.93
2022-09-02T02:46:38.261Z,0.77
2022-09-02T02:49:05.959Z,0.80
2022-09-02T02:51:33.418Z,0.93
2022-09-02T02:54:01.515Z,0.82
2022-09-02T02:56:28.673Z,0.60
2022-09-02T02:58:55.405Z,0.90
2022-09-02T03:01:22.571Z,0.88
2022-09-02T03:03:49.372Z,0.68
2022-09-02T03:06:15.926Z,0.60
2022-09-02T03:08:49.055Z,0.93
2022-09-02T03:11:18.215Z,1.00
2022-09-02T03:13:44.739Z,0.98
2022-09-02T03:16:11.648Z,0.90
2022-09-02T03:18:38.338Z,0.90
2022-09-02T03:21:08.326Z,0.85
2022-09-02T03:23:35.112Z,0.93
2022-09-02T03:26:01.761Z,0.88
2022-09-02T03:28:28.806Z,0.95
2022-09-02T03:30:55.540Z,0.90
2022-09-02T03:33:22.684Z,1.05
2022-09-02T03:35:49.379Z,0.90
2022-09-02T03:38:16.030Z,0.80
2022-09-02T03:40:43.104Z,1.00
2022-09-02T03:43:09.906Z,0.80
2022-09-02T03:45:36.642Z,0.73
2022-09-02T03:48:03.307Z,1.20
2022-09-02T03:50:31.508Z,0.95
2022-09-02T03:52:59.241Z,0.98
2022-09-02T03:55:26.340Z,0.80
2022-09-02T03:57:53.284Z,0.95
2022-09-02T04:00:24.042Z,0.93
2022-09-02T04:02:51.696Z,0.82
2022-09-02T04:05:18.398Z,0.90
2022-09-02T04:07:46.922Z,0.70
2022-09-02T04:10:14.066Z,0.98
2022-09-02T04:12:40.940Z,1.00
2022-09-02T04:15:08.188Z,0.80
2022-09-02T04:17:38.253Z,1.23
2022-09-02T04:20:06.463Z,1.10
2022-09-02T04:22:33.329Z,0.73
2022-09-02T04:25:00.199Z,0.95
2022-09-02T04:27:27.265Z,1.02
2022-09-02T04:29:53.918Z,1.15
2022-09-02T04:32:21.840Z,0.95
2022-09-02T04:34:49.958Z,1.00
2022-09-02T04:37:16.627Z,1.00
2022-09-02T04:39:43.147Z,0.70
2022-09-02T04:42:09.662Z,0.80
2022-09-02T04:44:36.169Z,0.95
2022-09-02T04:47:02.865Z,0.93
2022-09-02T04:49:32.127Z,0.80
2022-09-02T04:51:59.498Z,1.00
2022-09-02T04:54:26.196Z,0.90
2022-09-02T04:56:52.737Z,0.70
2022-09-02T04:59:21.254Z,0.80
2022-09-02T05:01:48.008Z,0.95
2022-09-02T05:04:14.733Z,1.40
2022-09-02T05:06:44.322Z,1.92
2022-09-02T05:09:11.163Z,1.60
2022-09-02T05:11:38.874Z,1.80
2022-09-02T05:14:06.756Z,1.58
2022-09-02T05:16:36.801Z,1.70
2022-09-02T05:19:04.575Z,1.90
2022-09-02T05:21:34.147Z,2.38
2022-09-02T05:24:01.131Z,1.73
2022-09-02T05:26:27.972Z,2.25
2022-09-02T05:28:54.612Z,3.30
2022-09-02T05:31:21.866Z,4.03
2022-09-02T05:33:48.879Z,2.63
2022-09-02T05:36:17.227Z,3.05
2022-09-02T05:38:44.532Z,2.95
2022-09-02T05:41:16.930Z,4.80
2022-09-02T05:43:44.727Z,6.10
2022-09-02T05:46:13.170Z,4.47
2022-09-02T05:48:58.360Z,4.30
2022-09-02T05:51:25.650Z,3.65
2022-09-02T05:53:53.654Z,6.22
2022-09-02T05:56:20.641Z,11.27
2022-09-02T05:58:47.415Z,4.38
2022-09-02T06:01:14.918Z,4.00
2022-09-02T06:03:41.880Z,2.80
2022-09-02T06:06:09.230Z,2.33
2022-09-02T06:08:36.311Z,2.05
2022-09-02T06:11:03.941Z,2.67
2022-09-02T06:13:31.509Z,1.60
2022-09-02T10:56:50.677Z,1.33
2022-09-02T10:59:23.797Z,1.17
2022-09-02T11:01:59.484Z,1.13
2022-09-02T11:04:37.821Z,1.38
2022-09-02T11:07:06.261Z,4.05
2022-09-02T11:09:35.221Z,1.23
2022-09-02T11:12:07.851Z,1.98
2022-09-02T11:14:41.612Z,2.30
2022-09-02T11:17:17.526Z,4.88
2022-09-02T11:19:48.100Z,5.93
2022-09-02T11:22:27.254Z,5.97
2022-09-02T11:24:54.045Z,2.75
2022-09-02T11:27:42.173Z,4.43
2022-09-02T11:30:12.674Z,2.03
2022-09-02T11:32:43.804Z,2.00
2022-09-02T11:35:13.340Z,1.58
2022-09-02T11:37:42.700Z,1.42
2022-09-02T11:40:33.149Z,1.65
2022-09-02T11:42:59.962Z,1.20
2022-09-02T11:45:33.742Z,1.35
2022-09-02T11:48:20.837Z,1.48
2022-09-02T11:51:06.400Z,1.20
2022-09-02T11:53:39.921Z,0.90
2022-09-02T11:56:22.113Z,1.15
2022-09-02T11:58:53.088Z,1.15
2022-09-02T12:01:33.238Z,1.20
2022-09-02T12:04:58.144Z,1.20
2022-09-02T12:07:19.831Z,1.00
2022-09-02T12:09:48.004Z,1.17
2022-09-02T12:12:34.452Z,1.10
2022-09-02T12:15:03.667Z,1.40
2022-09-02T12:17:37.304Z,1.13
2022-09-02T12:20:08.484Z,1.50
2022-09-02T12:22:41.920Z,1.48
2022-09-02T12:25:28.271Z,1.27
2022-09-02T12:28:19.018Z,1.38
2022-09-02T12:31:07.838Z,1.50
2022-09-02T12:33:36.380Z,1.05
2022-09-02T12:36:04.970Z,1.10
2022-09-02T12:38:34.673Z,1.00
2022-09-02T12:41:04.420Z,1.25
2022-09-02T12:43:48.066Z,1.25
2022-09-02T12:46:35.010Z,1.48
2022-09-02T12:49:05.790Z,1.58
2022-09-02T12:51:51.070Z,1.38
2022-09-02T12:54:18.140Z,1.58
2022-09-02T12:56:51.340Z,1.58
2022-09-02T12:59:31.230Z,1.80
2022-09-02T13:02:15.064Z,1.52
2022-09-02T13:04:47.710Z,1.33
2022-09-02T13:07:23.360Z,1.50
2022-09-02T13:09:55.860Z,1.88
2022-09-02T13:12:30.202Z,1.30
2022-09-02T13:15:15.505Z,1.42
2022-09-02T13:17:46.081Z,1.40
2022-09-02T13:20:20.111Z,1.05
2022-09-02T13:23:05.260Z,1.33
2022-09-02T13:25:47.740Z,0.82
2022-09-02T13:28:49.532Z,1.00
2022-09-02T13:31:19.928Z,1.23
2022-09-02T13:33:46.480Z,0.95
2022-09-02T13:36:21.461Z,1.02
2022-09-02T13:38:48.033Z,1.40
2022-09-02T13:41:27.569Z,1.10
2022-09-02T13:44:10.841Z,1.50
2022-09-02T13:46:47.631Z,1.10
2022-09-02T13:49:24.450Z,1.40
2022-09-02T13:51:52.911Z,1.00
2022-09-02T13:54:26.147Z,1.08
2022-09-02T13:56:53.224Z,0.90
2022-09-02T13:59:42.742Z,1.20
2022-09-02T14:02:23.490Z,1.10
2022-09-02T14:04:51.300Z,0.98
2022-09-02T14:07:19.589Z,1.67
2022-09-02T14:09:46.368Z,1.08
2022-09-02T14:12:13.040Z,1.10
2022-09-02T14:14:41.368Z,1.08
2022-09-02T14:17:18.509Z,0.85
2022-09-02T14:19:45.029Z,1.00
2022-09-02T14:22:28.138Z,0.98
2022-09-02T14:24:54.831Z,1.15
2022-09-02T14:27:22.120Z,1.00
2022-09-02T14:29:52.728Z,1.00
2022-09-02T14:32:23.940Z,0.98
2022-09-02T14:35:09.237Z,1.60
2022-09-02T14:37:48.181Z,0.98
2022-09-02T14:40:15.082Z,1.40
2022-09-02T14:42:51.666Z,1.65
2022-09-02T14:45:33.242Z,1.05
2022-09-02T14:48:23.178Z,1.30
2022-09-02T14:50:50.424Z,1.00
2022-09-02T14:53:20.821Z,1.52
2022-09-02T14:55:50.115Z,1.13
2022-09-02T14:58:17.451Z,1.02
2022-09-02T15:00:55.692Z,1.30
2022-09-02T15:03:23.380Z,1.42
2022-09-02T15:05:50.162Z,1.25
2022-09-02T15:08:16.920Z,1.30
2022-09-02T15:10:43.781Z,1.30
2022-09-02T15:13:12.641Z,1.20
2022-09-02T15:15:40.056Z,1.00
2022-09-02T15:18:09.031Z,1.35
2022-09-02T15:20:35.870Z,1.10
2022-09-02T15:23:03.236Z,1.45
2022-09-02T15:25:30.290Z,1.08
2022-09-02T15:27:57.111Z,1.67
2022-09-02T15:30:23.771Z,1.30
2022-09-02T15:32:50.810Z,3.60
2022-09-02T15:35:17.571Z,1.50
2022-09-02T15:37:44.081Z,1.50
2022-09-02T15:40:10.960Z,1.30
2022-09-02T15:42:38.060Z,1.10
2022-09-02T15:45:05.920Z,1.10
2022-09-02T15:47:34.901Z,1.27
2022-09-02T15:50:01.400Z,1.27
2022-09-02T15:52:28.041Z,1.13
2022-09-02T15:54:55.240Z,1.10
2022-09-02T15:57:21.971Z,1.10
2022-09-02T15:59:48.663Z,1.10
2022-09-02T16:02:15.291Z,0.98
2022-09-02T16:04:42.000Z,1.00
2022-09-02T16:07:08.762Z,1.10
2022-09-02T16:09:35.352Z,1.23
2022-09-02T16:12:01.974Z,1.40
2022-09-02T16:14:28.862Z,1.15
2022-09-02T16:16:58.536Z,1.58
2022-09-02T16:19:27.717Z,1.00
2022-09-02T16:21:56.480Z,0.85
2022-09-02T16:24:23.230Z,1.10
2022-09-02T16:26:50.070Z,1.17
2022-09-02T16:29:17.737Z,1.10
2022-09-02T16:31:47.746Z,0.90
2022-09-02T16:34:24.040Z,1.13
2022-09-02T16:36:50.793Z,1.20
2022-09-02T16:39:17.750Z,1.35
2022-09-02T16:41:45.523Z,1.52
2022-09-02T16:44:13.741Z,1.30
2022-09-02T16:46:43.152Z,1.02
2022-09-02T16:49:11.082Z,1.10
2022-09-02T16:51:40.812Z,1.10
2022-09-02T16:54:08.491Z,1.27
2022-09-02T16:56:36.752Z,1.23
2022-09-02T16:59:04.930Z,1.00
2022-09-02T17:01:32.505Z,1.20
2022-09-02T17:04:00.692Z,1.10
2022-09-02T17:06:28.051Z,0.80
2022-09-02T17:08:54.841Z,0.95
2022-09-02T17:11:26.284Z,1.00
2022-09-02T17:13:57.581Z,1.40
2022-09-02T17:16:26.431Z,1.30
2022-09-02T17:18:53.805Z,1.23
2022-09-02T17:21:22.395Z,1.17
2022-09-02T17:23:49.094Z,1.08
2022-09-02T17:26:16.279Z,1.27
2022-09-02T17:28:50.364Z,1.27
2022-09-02T17:31:16.996Z,1.15
2022-09-02T17:33:43.653Z,1.10
2022-09-02T17:36:10.342Z,1.23
2022-09-02T17:38:36.869Z,1.20
2022-09-02T17:41:22.341Z,1.20
2022-09-02T17:43:48.939Z,1.10
2022-09-02T17:46:15.679Z,1.30
2022-09-02T17:49:05.656Z,1.05
2022-09-02T17:51:28.841Z,1.30
2022-09-02T17:53:56.012Z,1.40
2022-09-02T17:56:40.809Z,1.40
2022-09-02T17:59:24.461Z,1.13
2022-09-02T18:01:51.161Z,1.40
2022-09-02T18:04:21.428Z,1.45
2022-09-02T18:06:49.503Z,1.60
2022-09-02T18:09:20.308Z,1.30
2022-09-02T18:11:52.335Z,1.25
2022-09-02T18:14:35.031Z,1.50
2022-09-02T18:17:14.111Z,1.60
2022-09-02T18:19:57.631Z,1.70
2022-09-02T18:22:44.431Z,1.30
2022-09-02T18:25:14.002Z,1.65
2022-09-02T18:27:52.329Z,1.80
2022-09-02T18:30:29.499Z,1.75
2022-09-02T18:33:14.313Z,1.90
2022-09-02T18:35:43.837Z,1.98
2022-09-02T18:38:16.353Z,1.73
2022-09-02T18:40:49.164Z,1.92
2022-09-02T18:43:22.202Z,2.03
2022-09-02T18:45:53.386Z,1.85
2022-09-02T18:48:22.846Z,2.10
2022-09-02T18:50:51.977Z,2.00
2022-09-02T18:53:21.100Z,1.77
2022-09-02T18:55:48.819Z,2.03
2022-09-02T18:58:19.439Z,2.72
2022-09-02T19:00:50.613Z,1.80
2022-09-02T19:03:17.470Z,1.90
2022-09-02T19:05:44.290Z,2.65
2022-09-02T19:08:30.161Z,2.40
2022-09-02T19:11:01.643Z,1.70
2022-09-02T19:13:30.041Z,1.80
2022-09-02T19:16:04.205Z,1.40
2022-09-02T19:18:31.799Z,1.85
2022-09-02T19:20:58.867Z,1.85
2022-09-02T19:23:26.390Z,2.00
2022-09-02T19:25:53.169Z,2.30
2022-09-02T19:28:20.559Z,1.90
2022-09-02T19:30:47.390Z,2.13
2022-09-02T19:33:14.047Z,2.00
2022-09-02T19:35:49.109Z,1.85
2022-09-02T19:38:17.720Z,1.92
2022-09-02T19:40:45.670Z,1.90
2022-09-02T19:43:14.009Z,1.90
2022-09-02T19:45:40.662Z,2.15
2022-09-02T19:48:09.818Z,2.03
2022-09-02T19:50:43.699Z,1.77
2022-09-02T19:53:12.593Z,2.00
2022-09-02T19:55:39.452Z,1.83
2022-09-02T19:58:06.004Z,1.88
2022-09-02T20:00:33.938Z,1.67
2022-09-02T20:03:00.768Z,1.98
2022-09-02T20:05:28.301Z,1.85
2022-09-02T20:07:55.065Z,1.95
2022-09-02T20:10:27.678Z,2.03
2022-09-02T20:12:54.917Z,1.73
2022-09-02T20:15:21.530Z,1.90
2022-09-02T20:17:48.113Z,2.22
2022-09-02T20:20:16.140Z,2.00
2022-09-02T20:22:42.709Z,1.80
2022-09-02T20:25:10.449Z,2.00
2022-09-02T20:28:02.772Z,1.70
2022-09-02T20:30:33.800Z,1.80
2022-09-02T20:33:06.377Z,1.58
2022-09-02T20:35:41.946Z,1.63
2022-09-02T20:38:26.632Z,1.73
2022-09-02T20:41:06.368Z,1.45
2022-09-02T20:43:32.896Z,1.73
2022-09-02T20:46:02.149Z,1.55
2022-09-02T20:48:47.406Z,1.70
2022-09-02T20:51:27.449Z,1.50
2022-09-02T20:54:12.132Z,1.75
2022-09-02T20:56:52.129Z,1.60
2022-09-02T20:59:25.097Z,1.50
2022-09-02T21:01:54.863Z,1.45
2022-09-02T21:04:29.065Z,1.70
2022-09-02T21:07:01.561Z,1.70
2022-09-02T21:09:35.107Z,1.55
2022-09-02T21:12:05.921Z,1.42
2022-09-02T21:14:40.139Z,1.38
2022-09-02T21:17:10.449Z,1.50
2022-09-02T21:19:41.849Z,1.30
2022-09-02T21:22:13.908Z,2.17
2022-09-02T21:24:50.149Z,1.30
2022-09-02T21:27:20.629Z,1.30
2022-09-02T21:30:02.523Z,1.60
2022-09-02T21:32:40.860Z,1.60
2022-09-02T21:35:07.499Z,1.23
2022-09-02T21:37:36.734Z,1.60
2022-09-02T21:40:07.209Z,1.40
2022-09-02T21:42:33.696Z,1.40
2022-09-02T21:45:03.299Z,1.80
2022-09-02T21:47:57.420Z,1.58
2022-09-02T21:50:28.929Z,1.30
2022-09-02T21:53:12.017Z,1.23
2022-09-02T21:55:47.837Z,1.38
2022-09-02T21:58:49.596Z,1.45
2022-09-02T22:01:23.319Z,1.48
2022-09-02T22:03:51.037Z,1.60
2022-09-02T22:06:28.467Z,1.58
2022-09-02T22:08:59.290Z,1.40
2022-09-02T22:11:31.971Z,1.55
2022-09-02T22:14:02.289Z,1.20
2022-09-02T22:16:46.609Z,1.50
2022-09-02T22:19:13.679Z,1.38
2022-09-02T22:21:47.151Z,1.58
2022-09-02T22:24:17.702Z,1.55
2022-09-02T22:26:44.219Z,1.30
2022-09-02T22:29:17.319Z,1.90
2022-09-02T22:31:45.227Z,1.15
2022-09-02T22:34:15.380Z,1.30
2022-09-02T22:37:02.689Z,1.48
2022-09-02T22:39:47.973Z,1.45
2022-09-02T22:42:29.347Z,1.58
2022-09-02T22:45:34.551Z,1.55
2022-09-02T22:48:40.060Z,1.90
2022-09-02T22:51:28.394Z,1.63
2022-09-02T22:53:54.942Z,1.60
2022-09-02T22:56:41.620Z,1.60
2022-09-02T22:59:11.267Z,1.42
2022-09-02T23:01:40.613Z,1.55
2022-09-02T23:04:22.201Z,1.40
2022-09-02T23:06:48.729Z,1.92
2022-09-02T23:09:18.819Z,1.60
2022-09-02T23:11:51.409Z,1.55
2022-09-02T23:14:26.720Z,1.77
2022-09-02T23:17:15.760Z,1.60
2022-09-02T23:19:56.630Z,1.55
2022-09-02T23:22:34.304Z,1.38
2022-09-02T23:25:13.910Z,1.55
2022-09-02T23:27:45.175Z,1.67
2022-09-02T23:30:14.725Z,1.70
2022-09-02T23:32:44.298Z,1.38
2022-09-02T23:35:18.279Z,1.50
2022-09-02T23:37:50.779Z,1.80
2022-09-02T23:40:27.307Z,1.30
2022-09-02T23:42:55.289Z,1.48
2022-09-02T23:45:23.600Z,1.60
2022-09-02T23:47:57.010Z,1.40
2022-09-02T23:50:26.550Z,1.80
2022-09-02T23:52:56.683Z,1.40
2022-09-02T23:55:23.449Z,1.30
2022-09-02T23:57:56.312Z,1.20
